sensor_id;sensor_type;location;lat;lon;timestamp;P1;durP1;ratioP1;P2;durP2;ratioP2
22916;SDS011;11624;53.250;7.456;2022-09-09T00:00:13;22.75;;;9.75;;
22916;SDS011;11624;53.250;7.456;2022-09-09T00:02:45;22.20;;;9.95;;
22916;SDS011;11624;53.250;7.456;2022-09-09T00:05:19;21.23;;;10.40;;
22916;SDS011;11624;53.250;7.456;2022-09-09T00:07:54;20.40;;;10.75;;
22916;SDS011;11624;53.250;7.456;2022-09-09T00:10:28;23.05;;;11.68;;
22916;SDS011;11624;53.250;7.456;2022-09-09T00:13:02;25.80;;;11.65;;
22916;SDS011;11624;53.250;7.456;2022-09-09T00:15:45;22.80;;;11.55;;
22916;SDS011;11624;53.250;7.456;2022-09-09T00:18:24;24.58;;;11.88;;
22916;SDS011;11624;53.250;7.456;2022-09-09T00:20:58;25.33;;;11.38;;
22916;SDS011;11624;53.250;7.456;2022-09-09T00:23:31;27.48;;;12.32;;
22916;SDS011;11624;53.250;7.456;2022-09-09T00:26:04;29.25;;;12.40;;
22916;SDS011;11624;53.250;7.456;2022-09-09T00:28:41;26.63;;;11.45;;
22916;SDS011;11624;53.250;7.456;2022-09-09T00:31:15;25.02;;;11.77;;
22916;SDS011;11624;53.250;7.456;2022-09-09T00:33:47;31.88;;;13.50;;
22916;SDS011;11624;53.250;7.456;2022-09-09T00:36:18;25.42;;;12.88;;
22916;SDS011;11624;53.250;7.456;2022-09-09T00:38:49;28.92;;;13.38;;
22916;SDS011;11624;53.250;7.456;2022-09-09T00:41:21;30.75;;;13.15;;
22916;SDS011;11624;53.250;7.456;2022-09-09T00:43:57;25.83;;;12.77;;
22916;SDS011;11624;53.250;7.456;2022-09-09T00:49:32;30.63;;;12.95;;
22916;SDS011;11624;53.250;7.456;2022-09-09T00:52:12;28.65;;;14.30;;
22916;SDS011;11624;53.250;7.456;2022-09-09T00:54:52;26.98;;;13.55;;
22916;SDS011;11624;53.250;7.456;2022-09-09T00:57:31;25.45;;;13.65;;
22916;SDS011;11624;53.250;7.456;2022-09-09T01:02:49;26.38;;;12.13;;
22916;SDS011;11624;53.250;7.456;2022-09-09T01:05:33;29.10;;;13.13;;
22916;SDS011;11624;53.250;7.456;2022-09-09T01:08:11;28.73;;;12.45;;
22916;SDS011;11624;53.250;7.456;2022-09-09T01:10:54;29.52;;;12.88;;
22916;SDS011;11624;53.250;7.456;2022-09-09T01:13:28;25.63;;;12.43;;
22916;SDS011;11624;53.250;7.456;2022-09-09T01:16:04;25.23;;;13.40;;
22916;SDS011;11624;53.250;7.456;2022-09-09T01:18:40;28.05;;;12.98;;
22916;SDS011;11624;53.250;7.456;2022-09-09T01:21:15;25.80;;;12.50;;
22916;SDS011;11624;53.250;7.456;2022-09-09T01:23:59;30.17;;;12.55;;
22916;SDS011;11624;53.250;7.456;2022-09-09T01:27:07;22.92;;;11.80;;
22916;SDS011;11624;53.250;7.456;2022-09-09T01:29:38;27.98;;;12.23;;
22916;SDS011;11624;53.250;7.456;2022-09-09T01:35:10;22.65;;;11.18;;
22916;SDS011;11624;53.250;7.456;2022-09-09T01:37:42;26.90;;;11.48;;
22916;SDS011;11624;53.250;7.456;2022-09-09T01:40:10;28.67;;;10.93;;
22916;SDS011;11624;53.250;7.456;2022-09-09T01:42:40;23.83;;;11.65;;
22916;SDS011;11624;53.250;7.456;2022-09-09T01:45:08;21.15;;;10.48;;
22916;SDS011;11624;53.250;7.456;2022-09-09T01:47:37;23.15;;;11.40;;
22916;SDS011;11624;53.250;7.456;2022-09-09T01:50:15;24.60;;;11.95;;
22916;SDS011;11624;53.250;7.456;2022-09-09T01:52:44;25.75;;;11.98;;
22916;SDS011;11624;53.250;7.456;2022-09-09T01:55:19;26.70;;;11.27;;
22916;SDS011;11624;53.250;7.456;2022-09-09T01:58:00;24.35;;;11.30;;
22916;SDS011;11624;53.250;7.456;2022-09-09T02:00:41;24.33;;;10.82;;
22916;SDS011;11624;53.250;7.456;2022-09-09T02:03:17;22.45;;;10.68;;
22916;SDS011;11624;53.250;7.456;2022-09-09T02:05:59;25.15;;;10.95;;
22916;SDS011;11624;53.250;7.456;2022-09-09T02:08:39;24.55;;;11.65;;
22916;SDS011;11624;53.250;7.456;2022-09-09T02:11:11;24.10;;;11.35;;
22916;SDS011;11624;53.250;7.456;2022-09-09T02:13:47;25.27;;;11.38;;
22916;SDS011;11624;53.250;7.456;2022-09-09T02:16:21;25.80;;;11.10;;
22916;SDS011;11624;53.250;7.456;2022-09-09T02:18:53;29.77;;;11.80;;
22916;SDS011;11624;53.250;7.456;2022-09-09T02:21:34;26.98;;;11.70;;
22916;SDS011;11624;53.250;7.456;2022-09-09T02:24:04;25.70;;;11.95;;
22916;SDS011;11624;53.250;7.456;2022-09-09T02:26:40;29.85;;;12.18;;
22916;SDS011;11624;53.250;7.456;2022-09-09T02:29:16;22.65;;;11.50;;
22916;SDS011;11624;53.250;7.456;2022-09-09T02:31:47;22.60;;;11.65;;
22916;SDS011;11624;53.250;7.456;2022-09-09T02:34:22;25.17;;;11.77;;
22916;SDS011;11624;53.250;7.456;2022-09-09T02:36:54;27.50;;;12.23;;
22916;SDS011;11624;53.250;7.456;2022-09-09T02:39:25;21.67;;;11.75;;
22916;SDS011;11624;53.250;7.456;2022-09-09T02:41:53;21.08;;;10.77;;
22916;SDS011;11624;53.250;7.456;2022-09-09T02:44:30;26.58;;;11.55;;
22916;SDS011;11624;53.250;7.456;2022-09-09T02:47:07;23.58;;;11.20;;
22916;SDS011;11624;53.250;7.456;2022-09-09T02:49:47;25.25;;;10.63;;
22916;SDS011;11624;53.250;7.456;2022-09-09T02:52:21;22.90;;;10.52;;
22916;SDS011;11624;53.250;7.456;2022-09-09T02:54:58;22.40;;;10.10;;
22916;SDS011;11624;53.250;7.456;2022-09-09T02:57:34;21.95;;;10.15;;
22916;SDS011;11624;53.250;7.456;2022-09-09T03:00:06;20.38;;;10.18;;
22916;SDS011;11624;53.250;7.456;2022-09-09T03:02:35;21.83;;;10.20;;
22916;SDS011;11624;53.250;7.456;2022-09-09T03:05:05;23.67;;;10.05;;
22916;SDS011;11624;53.250;7.456;2022-09-09T03:07:34;21.45;;;9.88;;
22916;SDS011;11624;53.250;7.456;2022-09-09T03:10:03;25.38;;;9.95;;
22916;SDS011;11624;53.250;7.456;2022-09-09T03:12:31;24.35;;;10.07;;
22916;SDS011;11624;53.250;7.456;2022-09-09T03:15:00;20.38;;;9.80;;
22916;SDS011;11624;53.250;7.456;2022-09-09T03:17:29;19.90;;;9.77;;
22916;SDS011;11624;53.250;7.456;2022-09-09T03:19:57;21.58;;;9.40;;
22916;SDS011;11624;53.250;7.456;2022-09-09T03:22:25;24.73;;;9.77;;
22916;SDS011;11624;53.250;7.456;2022-09-09T03:24:55;18.25;;;9.60;;
22916;SDS011;11624;53.250;7.456;2022-09-09T03:27:23;23.02;;;9.98;;
22916;SDS011;11624;53.250;7.456;2022-09-09T03:29:52;22.13;;;10.27;;
22916;SDS011;11624;53.250;7.456;2022-09-09T03:32:23;19.45;;;9.82;;
22916;SDS011;11624;53.250;7.456;2022-09-09T03:34:54;22.95;;;9.32;;
22916;SDS011;11624;53.250;7.456;2022-09-09T03:37:23;22.13;;;10.13;;
22916;SDS011;11624;53.250;7.456;2022-09-09T03:39:52;21.75;;;9.57;;
22916;SDS011;11624;53.250;7.456;2022-09-09T03:42:22;21.55;;;9.23;;
22916;SDS011;11624;53.250;7.456;2022-09-09T03:44:52;22.42;;;9.68;;
22916;SDS011;11624;53.250;7.456;2022-09-09T03:47:23;23.73;;;9.43;;
22916;SDS011;11624;53.250;7.456;2022-09-09T03:49:58;20.85;;;9.25;;
22916;SDS011;11624;53.250;7.456;2022-09-09T03:52:27;21.17;;;9.80;;
22916;SDS011;11624;53.250;7.456;2022-09-09T03:54:56;21.95;;;9.10;;
22916;SDS011;11624;53.250;7.456;2022-09-09T03:57:24;20.15;;;8.88;;
22916;SDS011;11624;53.250;7.456;2022-09-09T03:59:52;18.70;;;8.98;;
22916;SDS011;11624;53.250;7.456;2022-09-09T04:02:20;23.73;;;9.30;;
22916;SDS011;11624;53.250;7.456;2022-09-09T04:04:49;18.98;;;8.95;;
22916;SDS011;11624;53.250;7.456;2022-09-09T04:07:18;19.42;;;9.18;;
22916;SDS011;11624;53.250;7.456;2022-09-09T04:09:47;27.00;;;9.80;;
22916;SDS011;11624;53.250;7.456;2022-09-09T04:12:16;21.80;;;8.95;;
22916;SDS011;11624;53.250;7.456;2022-09-09T04:14:44;17.83;;;8.68;;
22916;SDS011;11624;53.250;7.456;2022-09-09T04:17:12;22.10;;;8.63;;
22916;SDS011;11624;53.250;7.456;2022-09-09T04:19:40;20.42;;;8.63;;
22916;SDS011;11624;53.250;7.456;2022-09-09T04:22:09;18.40;;;8.35;;
22916;SDS011;11624;53.250;7.456;2022-09-09T04:24:39;21.50;;;8.45;;
22916;SDS011;11624;53.250;7.456;2022-09-09T04:27:13;19.23;;;8.60;;
22916;SDS011;11624;53.250;7.456;2022-09-09T04:29:41;22.08;;;9.43;;
22916;SDS011;11624;53.250;7.456;2022-09-09T04:32:09;18.67;;;8.68;;
22916;SDS011;11624;53.250;7.456;2022-09-09T04:34:38;17.88;;;8.80;;
22916;SDS011;11624;53.250;7.456;2022-09-09T04:37:08;20.30;;;9.20;;
22916;SDS011;11624;53.250;7.456;2022-09-09T04:39:38;17.88;;;7.95;;
22916;SDS011;11624;53.250;7.456;2022-09-09T04:42:07;22.00;;;9.27;;
22916;SDS011;11624;53.250;7.456;2022-09-09T04:44:35;17.83;;;9.00;;
22916;SDS011;11624;53.250;7.456;2022-09-09T04:47:03;19.15;;;8.38;;
22916;SDS011;11624;53.250;7.456;2022-09-09T04:49:32;20.75;;;9.48;;
22916;SDS011;11624;53.250;7.456;2022-09-09T04:52:00;21.77;;;8.52;;
22916;SDS011;11624;53.250;7.456;2022-09-09T04:54:30;18.55;;;8.38;;
22916;SDS011;11624;53.250;7.456;2022-09-09T04:57:00;19.73;;;8.45;;
22916;SDS011;11624;53.250;7.456;2022-09-09T04:59:28;19.63;;;8.32;;
22916;SDS011;11624;53.250;7.456;2022-09-09T05:01:59;24.40;;;8.75;;
22916;SDS011;11624;53.250;7.456;2022-09-09T05:04:28;19.00;;;8.48;;
22916;SDS011;11624;53.250;7.456;2022-09-09T05:06:57;18.95;;;8.45;;
22916;SDS011;11624;53.250;7.456;2022-09-09T05:09:25;19.13;;;8.40;;
22916;SDS011;11624;53.250;7.456;2022-09-09T05:11:54;18.67;;;8.57;;
22916;SDS011;11624;53.250;7.456;2022-09-09T05:14:28;17.85;;;8.07;;
22916;SDS011;11624;53.250;7.456;2022-09-09T05:16:59;20.02;;;7.90;;
22916;SDS011;11624;53.250;7.456;2022-09-09T05:19:27;18.48;;;7.57;;
22916;SDS011;11624;53.250;7.456;2022-09-09T05:21:56;22.27;;;7.47;;
22916;SDS011;11624;53.250;7.456;2022-09-09T05:24:32;17.75;;;7.03;;
22916;SDS011;11624;53.250;7.456;2022-09-09T05:27:02;21.10;;;8.02;;
22916;SDS011;11624;53.250;7.456;2022-09-09T05:29:33;16.40;;;7.78;;
22916;SDS011;11624;53.250;7.456;2022-09-09T05:32:04;18.10;;;7.55;;
22916;SDS011;11624;53.250;7.456;2022-09-09T05:34:34;19.63;;;7.65;;
22916;SDS011;11624;53.250;7.456;2022-09-09T05:37:04;21.42;;;8.07;;
22916;SDS011;11624;53.250;7.456;2022-09-09T05:39:34;17.40;;;7.10;;
22916;SDS011;11624;53.250;7.456;2022-09-09T05:42:03;20.05;;;7.18;;
22916;SDS011;11624;53.250;7.456;2022-09-09T05:44:34;17.55;;;7.25;;
22916;SDS011;11624;53.250;7.456;2022-09-09T05:47:02;19.92;;;6.97;;
22916;SDS011;11624;53.250;7.456;2022-09-09T05:49:31;16.77;;;6.22;;
22916;SDS011;11624;53.250;7.456;2022-09-09T05:51:59;16.17;;;6.07;;
22916;SDS011;11624;53.250;7.456;2022-09-09T05:54:27;13.95;;;5.95;;
22916;SDS011;11624;53.250;7.456;2022-09-09T05:56:55;13.75;;;6.05;;
22916;SDS011;11624;53.250;7.456;2022-09-09T05:59:23;17.35;;;6.97;;
22916;SDS011;11624;53.250;7.456;2022-09-09T06:01:55;18.85;;;6.50;;
22916;SDS011;11624;53.250;7.456;2022-09-09T06:04:34;14.60;;;6.20;;
22916;SDS011;11624;53.250;7.456;2022-09-09T06:07:03;17.38;;;6.22;;
22916;SDS011;11624;53.250;7.456;2022-09-09T06:09:32;15.60;;;6.55;;
22916;SDS011;11624;53.250;7.456;2022-09-09T06:12:00;15.98;;;6.47;;
22916;SDS011;11624;53.250;7.456;2022-09-09T06:14:32;16.52;;;6.55;;
22916;SDS011;11624;53.250;7.456;2022-09-09T06:17:02;14.75;;;6.63;;
22916;SDS011;11624;53.250;7.456;2022-09-09T06:19:31;14.13;;;5.88;;
22916;SDS011;11624;53.250;7.456;2022-09-09T06:22:00;16.08;;;6.15;;
22916;SDS011;11624;53.250;7.456;2022-09-09T06:24:31;15.88;;;5.93;;
22916;SDS011;11624;53.250;7.456;2022-09-09T06:27:01;18.65;;;6.55;;
22916;SDS011;11624;53.250;7.456;2022-09-09T06:29:33;18.05;;;6.07;;
22916;SDS011;11624;53.250;7.456;2022-09-09T06:32:03;18.65;;;6.28;;
22916;SDS011;11624;53.250;7.456;2022-09-09T06:34:31;14.82;;;5.97;;
22916;SDS011;11624;53.250;7.456;2022-09-09T06:36:59;13.65;;;5.65;;
22916;SDS011;11624;53.250;7.456;2022-09-09T06:39:34;15.50;;;6.03;;
22916;SDS011;11624;53.250;7.456;2022-09-09T06:42:02;14.00;;;6.03;;
22916;SDS011;11624;53.250;7.456;2022-09-09T06:44:49;16.15;;;5.68;;
22916;SDS011;11624;53.250;7.456;2022-09-09T06:47:25;14.73;;;6.38;;
22916;SDS011;11624;53.250;7.456;2022-09-09T06:49:55;16.40;;;5.45;;
22916;SDS011;11624;53.250;7.456;2022-09-09T06:52:24;15.73;;;5.65;;
22916;SDS011;11624;53.250;7.456;2022-09-09T06:54:54;14.23;;;4.72;;
22916;SDS011;11624;53.250;7.456;2022-09-09T06:57:22;14.27;;;4.93;;
22916;SDS011;11624;53.250;7.456;2022-09-09T07:00:06;13.93;;;4.65;;
22916;SDS011;11624;53.250;7.456;2022-09-09T07:02:37;13.25;;;4.78;;
22916;SDS011;11624;53.250;7.456;2022-09-09T07:05:07;14.82;;;5.50;;
22916;SDS011;11624;53.250;7.456;2022-09-09T07:07:37;13.75;;;5.03;;
22916;SDS011;11624;53.250;7.456;2022-09-09T07:10:07;14.98;;;4.82;;
22916;SDS011;11624;53.250;7.456;2022-09-09T07:12:36;12.80;;;5.20;;
22916;SDS011;11624;53.250;7.456;2022-09-09T07:15:08;12.77;;;5.20;;
22916;SDS011;11624;53.250;7.456;2022-09-09T07:17:42;17.08;;;5.80;;
22916;SDS011;11624;53.250;7.456;2022-09-09T07:20:10;11.80;;;5.13;;
22916;SDS011;11624;53.250;7.456;2022-09-09T07:22:39;13.82;;;5.63;;
22916;SDS011;11624;53.250;7.456;2022-09-09T07:25:08;12.88;;;5.10;;
22916;SDS011;11624;53.250;7.456;2022-09-09T07:27:37;14.50;;;5.45;;
22916;SDS011;11624;53.250;7.456;2022-09-09T07:30:05;13.43;;;5.60;;
22916;SDS011;11624;53.250;7.456;2022-09-09T07:32:35;13.52;;;5.70;;
22916;SDS011;11624;53.250;7.456;2022-09-09T07:35:05;15.60;;;5.50;;
22916;SDS011;11624;53.250;7.456;2022-09-09T07:37:36;11.18;;;5.10;;
22916;SDS011;11624;53.250;7.456;2022-09-09T07:40:05;14.90;;;5.53;;
22916;SDS011;11624;53.250;7.456;2022-09-09T07:42:33;18.48;;;5.85;;
22916;SDS011;11624;53.250;7.456;2022-09-09T07:45:02;13.63;;;5.80;;
22916;SDS011;11624;53.250;7.456;2022-09-09T07:47:32;14.30;;;5.97;;
22916;SDS011;11624;53.250;7.456;2022-09-09T07:50:01;16.65;;;5.93;;
22916;SDS011;11624;53.250;7.456;2022-09-09T07:52:32;13.35;;;5.68;;
22916;SDS011;11624;53.250;7.456;2022-09-09T07:55:04;12.60;;;5.70;;
22916;SDS011;11624;53.250;7.456;2022-09-09T07:57:32;13.45;;;5.72;;
22916;SDS011;11624;53.250;7.456;2022-09-09T08:00:02;14.02;;;6.20;;
22916;SDS011;11624;53.250;7.456;2022-09-09T08:02:37;15.02;;;6.63;;
22916;SDS011;11624;53.250;7.456;2022-09-09T08:05:07;13.20;;;5.45;;
22916;SDS011;11624;53.250;7.456;2022-09-09T08:07:39;13.27;;;5.50;;
22916;SDS011;11624;53.250;7.456;2022-09-09T08:10:08;15.80;;;6.30;;
22916;SDS011;11624;53.250;7.456;2022-09-09T08:12:39;15.27;;;5.93;;
22916;SDS011;11624;53.250;7.456;2022-09-09T08:15:28;14.20;;;5.90;;
22916;SDS011;11624;53.250;7.456;2022-09-09T08:17:56;14.50;;;6.22;;
22916;SDS011;11624;53.250;7.456;2022-09-09T08:20:25;13.82;;;6.47;;
22916;SDS011;11624;53.250;7.456;2022-09-09T08:22:56;13.35;;;6.07;;
22916;SDS011;11624;53.250;7.456;2022-09-09T08:25:25;13.07;;;5.68;;
22916;SDS011;11624;53.250;7.456;2022-09-09T08:27:53;15.15;;;6.50;;
22916;SDS011;11624;53.250;7.456;2022-09-09T08:30:22;16.10;;;6.47;;
22916;SDS011;11624;53.250;7.456;2022-09-09T08:32:50;15.80;;;6.25;;
22916;SDS011;11624;53.250;7.456;2022-09-09T08:35:20;13.40;;;6.00;;
22916;SDS011;11624;53.250;7.456;2022-09-09T08:37:48;15.05;;;6.38;;
22916;SDS011;11624;53.250;7.456;2022-09-09T08:40:24;12.85;;;5.40;;
22916;SDS011;11624;53.250;7.456;2022-09-09T08:42:56;12.98;;;4.88;;
22916;SDS011;11624;53.250;7.456;2022-09-09T08:45:29;12.18;;;4.65;;
22916;SDS011;11624;53.250;7.456;2022-09-09T08:48:09;13.95;;;5.25;;
22916;SDS011;11624;53.250;7.456;2022-09-09T08:50:50;14.05;;;5.15;;
22916;SDS011;11624;53.250;7.456;2022-09-09T08:53:26;14.85;;;5.25;;
22916;SDS011;11624;53.250;7.456;2022-09-09T08:56:00;13.13;;;4.80;;
22916;SDS011;11624;53.250;7.456;2022-09-09T08:58:45;12.85;;;5.00;;
22916;SDS011;11624;53.250;7.456;2022-09-09T09:01:34;11.07;;;4.32;;
22916;SDS011;11624;53.250;7.456;2022-09-09T09:04:22;13.27;;;4.43;;
22916;SDS011;11624;53.250;7.456;2022-09-09T09:07:03;12.40;;;4.90;;
22916;SDS011;11624;53.250;7.456;2022-09-09T09:09:45;13.00;;;4.72;;
22916;SDS011;11624;53.250;7.456;2022-09-09T09:12:28;10.80;;;4.57;;
22916;SDS011;11624;53.250;7.456;2022-09-09T09:15:05;13.38;;;4.63;;
22916;SDS011;11624;53.250;7.456;2022-09-09T09:17:42;13.25;;;4.70;;
22916;SDS011;11624;53.250;7.456;2022-09-09T09:20:12;11.30;;;4.30;;
22916;SDS011;11624;53.250;7.456;2022-09-09T09:22:45;11.73;;;4.63;;
22916;SDS011;11624;53.250;7.456;2022-09-09T09:25:18;13.43;;;5.43;;
22916;SDS011;11624;53.250;7.456;2022-09-09T09:27:55;14.15;;;4.90;;
22916;SDS011;11624;53.250;7.456;2022-09-09T09:30:29;13.88;;;5.70;;
22916;SDS011;11624;53.250;7.456;2022-09-09T09:33:08;14.75;;;5.13;;
22916;SDS011;11624;53.250;7.456;2022-09-09T09:35:42;14.20;;;5.38;;
22916;SDS011;11624;53.250;7.456;2022-09-09T09:38:16;16.23;;;5.00;;
22916;SDS011;11624;53.250;7.456;2022-09-09T09:41:06;12.45;;;4.80;;
22916;SDS011;11624;53.250;7.456;2022-09-09T09:43:37;12.88;;;4.63;;
22916;SDS011;11624;53.250;7.456;2022-09-09T09:46:18;10.43;;;4.50;;
22916;SDS011;11624;53.250;7.456;2022-09-09T09:48:57;11.98;;;5.18;;
22916;SDS011;11624;53.250;7.456;2022-09-09T09:51:27;16.33;;;4.70;;
22916;SDS011;11624;53.250;7.456;2022-09-09T09:54:08;15.10;;;5.28;;
22916;SDS011;11624;53.250;7.456;2022-09-09T09:56:46;12.38;;;5.10;;
22916;SDS011;11624;53.250;7.456;2022-09-09T09:59:34;13.88;;;4.80;;
22916;SDS011;11624;53.250;7.456;2022-09-09T10:02:16;13.90;;;5.15;;
22916;SDS011;11624;53.250;7.456;2022-09-09T10:05:00;10.10;;;4.82;;
22916;SDS011;11624;53.250;7.456;2022-09-09T10:07:29;12.40;;;6.30;;
22916;SDS011;11624;53.250;7.456;2022-09-09T10:09:59;14.48;;;6.80;;
22916;SDS011;11624;53.250;7.456;2022-09-09T10:12:30;12.00;;;5.93;;
22916;SDS011;11624;53.250;7.456;2022-09-09T10:15:14;14.32;;;4.93;;
22916;SDS011;11624;53.250;7.456;2022-09-09T10:17:56;11.48;;;5.05;;
22916;SDS011;11624;53.250;7.456;2022-09-09T10:20:37;10.48;;;4.10;;
22916;SDS011;11624;53.250;7.456;2022-09-09T10:23:17;10.90;;;5.10;;
22916;SDS011;11624;53.250;7.456;2022-09-09T10:26:01;11.10;;;4.32;;
22916;SDS011;11624;53.250;7.456;2022-09-09T10:31:37;13.95;;;4.75;;
22916;SDS011;11624;53.250;7.456;2022-09-09T10:34:13;11.23;;;4.68;;
22916;SDS011;11624;53.250;7.456;2022-09-09T10:36:56;15.38;;;4.47;;
22916;SDS011;11624;53.250;7.456;2022-09-09T10:39:31;14.73;;;4.97;;
22916;SDS011;11624;53.250;7.456;2022-09-09T10:42:09;11.88;;;4.55;;
22916;SDS011;11624;53.250;7.456;2022-09-09T10:44:46;12.93;;;5.28;;
22916;SDS011;11624;53.250;7.456;2022-09-09T10:47:29;13.98;;;5.55;;
22916;SDS011;11624;53.250;7.456;2022-09-09T10:50:18;11.48;;;4.45;;
22916;SDS011;11624;53.250;7.456;2022-09-09T10:53:24;10.57;;;3.60;;
22916;SDS011;11624;53.250;7.456;2022-09-09T10:56:04;12.50;;;3.72;;
22916;SDS011;11624;53.250;7.456;2022-09-09T10:58:36;13.13;;;3.28;;
22916;SDS011;11624;53.250;7.456;2022-09-09T11:01:14;12.57;;;3.00;;
22916;SDS011;11624;53.250;7.456;2022-09-09T11:03:47;12.77;;;3.22;;
22916;SDS011;11624;53.250;7.456;2022-09-09T11:06:22;13.52;;;3.28;;
22916;SDS011;11624;53.250;7.456;2022-09-09T11:08:57;12.35;;;2.47;;
22916;SDS011;11624;53.250;7.456;2022-09-09T11:11:29;11.38;;;2.40;;
22916;SDS011;11624;53.250;7.456;2022-09-09T11:14:01;9.82;;;2.40;;
22916;SDS011;11624;53.250;7.456;2022-09-09T11:16:34;9.15;;;2.50;;
22916;SDS011;11624;53.250;7.456;2022-09-09T11:19:13;7.72;;;1.92;;
22916;SDS011;11624;53.250;7.456;2022-09-09T11:21:48;11.02;;;2.33;;
22916;SDS011;11624;53.250;7.456;2022-09-09T11:24:19;11.65;;;2.35;;
22916;SDS011;11624;53.250;7.456;2022-09-09T11:26:54;10.95;;;2.67;;
22916;SDS011;11624;53.250;7.456;2022-09-09T11:29:31;12.15;;;2.72;;
22916;SDS011;11624;53.250;7.456;2022-09-09T11:32:28;10.85;;;2.50;;
22916;SDS011;11624;53.250;7.456;2022-09-09T11:35:12;10.95;;;2.58;;
22916;SDS011;11624;53.250;7.456;2022-09-09T11:37:59;10.18;;;2.30;;
22916;SDS011;11624;53.250;7.456;2022-09-09T11:40:46;12.65;;;2.80;;
22916;SDS011;11624;53.250;7.456;2022-09-09T11:43:21;17.05;;;2.78;;
22916;SDS011;11624;53.250;7.456;2022-09-09T11:45:53;11.60;;;2.30;;
22916;SDS011;11624;53.250;7.456;2022-09-09T11:48:29;12.32;;;2.50;;
22916;SDS011;11624;53.250;7.456;2022-09-09T11:51:04;13.50;;;2.67;;
22916;SDS011;11624;53.250;7.456;2022-09-09T11:53:49;9.82;;;2.33;;
22916;SDS011;11624;53.250;7.456;2022-09-09T11:56:25;14.05;;;2.60;;
22916;SDS011;11624;53.250;7.456;2022-09-09T11:58:57;12.13;;;2.60;;
22916;SDS011;11624;53.250;7.456;2022-09-09T12:01:29;13.20;;;3.13;;
22916;SDS011;11624;53.250;7.456;2022-09-09T12:04:13;14.27;;;2.58;;
22916;SDS011;11624;53.250;7.456;2022-09-09T12:06:50;14.88;;;2.92;;
22916;SDS011;11624;53.250;7.456;2022-09-09T12:09:26;15.75;;;3.25;;
22916;SDS011;11624;53.250;7.456;2022-09-09T12:15:23;15.55;;;2.78;;
22916;SDS011;11624;53.250;7.456;2022-09-09T12:17:55;9.57;;;2.40;;
22916;SDS011;11624;53.250;7.456;2022-09-09T12:20:31;11.50;;;2.38;;
22916;SDS011;11624;53.250;7.456;2022-09-09T12:28:57;7.55;;;1.98;;
22916;SDS011;11624;53.250;7.456;2022-09-09T12:31:34;9.48;;;1.95;;
22916;SDS011;11624;53.250;7.456;2022-09-09T12:34:13;9.60;;;1.83;;
22916;SDS011;11624;53.250;7.456;2022-09-09T12:36:43;9.48;;;2.08;;
22916;SDS011;11624;53.250;7.456;2022-09-09T12:39:22;11.98;;;2.65;;
22916;SDS011;11624;53.250;7.456;2022-09-09T12:41:57;10.40;;;2.20;;
22916;SDS011;11624;53.250;7.456;2022-09-09T12:44:25;8.77;;;2.17;;
22916;SDS011;11624;53.250;7.456;2022-09-09T12:46:55;14.40;;;2.13;;
22916;SDS011;11624;53.250;7.456;2022-09-09T12:49:27;11.45;;;2.65;;
22916;SDS011;11624;53.250;7.456;2022-09-09T12:52:01;10.43;;;2.28;;
22916;SDS011;11624;53.250;7.456;2022-09-09T12:54:34;12.82;;;2.50;;
22916;SDS011;11624;53.250;7.456;2022-09-09T12:57:04;11.90;;;2.33;;
22916;SDS011;11624;53.250;7.456;2022-09-09T12:59:36;11.98;;;2.00;;
22916;SDS011;11624;53.250;7.456;2022-09-09T13:02:11;10.15;;;2.03;;
22916;SDS011;11624;53.250;7.456;2022-09-09T13:04:45;12.23;;;2.60;;
22916;SDS011;11624;53.250;7.456;2022-09-09T13:07:14;10.13;;;2.08;;
22916;SDS011;11624;53.250;7.456;2022-09-09T13:09:44;13.57;;;2.63;;
22916;SDS011;11624;53.250;7.456;2022-09-09T13:12:14;17.23;;;3.25;;
22916;SDS011;11624;53.250;7.456;2022-09-09T13:14:46;14.18;;;2.92;;
22916;SDS011;11624;53.250;7.456;2022-09-09T13:17:18;10.45;;;2.75;;
22916;SDS011;11624;53.250;7.456;2022-09-09T13:19:48;14.95;;;2.90;;
22916;SDS011;11624;53.250;7.456;2022-09-09T13:22:26;12.30;;;2.85;;
22916;SDS011;11624;53.250;7.456;2022-09-09T13:25:01;13.07;;;2.85;;
22916;SDS011;11624;53.250;7.456;2022-09-09T13:27:33;8.85;;;2.63;;
22916;SDS011;11624;53.250;7.456;2022-09-09T13:30:19;11.82;;;2.85;;
22916;SDS011;11624;53.250;7.456;2022-09-09T13:32:59;13.20;;;3.20;;
22916;SDS011;11624;53.250;7.456;2022-09-09T13:35:28;15.60;;;3.30;;
22916;SDS011;11624;53.250;7.456;2022-09-09T13:37:57;13.02;;;2.75;;
22916;SDS011;11624;53.250;7.456;2022-09-09T13:40:27;14.90;;;3.38;;
22916;SDS011;11624;53.250;7.456;2022-09-09T13:42:56;12.75;;;3.00;;
22916;SDS011;11624;53.250;7.456;2022-09-09T13:45:26;11.95;;;2.88;;
22916;SDS011;11624;53.250;7.456;2022-09-09T13:47:54;14.88;;;3.13;;
22916;SDS011;11624;53.250;7.456;2022-09-09T13:50:24;13.15;;;3.42;;
22916;SDS011;11624;53.250;7.456;2022-09-09T13:52:54;12.70;;;2.75;;
22916;SDS011;11624;53.250;7.456;2022-09-09T13:55:24;12.80;;;3.10;;
22916;SDS011;11624;53.250;7.456;2022-09-09T13:57:56;10.15;;;3.08;;
22916;SDS011;11624;53.250;7.456;2022-09-09T14:00:28;12.48;;;3.28;;
22916;SDS011;11624;53.250;7.456;2022-09-09T14:02:57;11.98;;;3.30;;
22916;SDS011;11624;53.250;7.456;2022-09-09T14:05:29;11.80;;;3.13;;
22916;SDS011;11624;53.250;7.456;2022-09-09T14:07:59;9.88;;;3.20;;
22916;SDS011;11624;53.250;7.456;2022-09-09T14:10:28;14.05;;;3.20;;
22916;SDS011;11624;53.250;7.456;2022-09-09T14:12:57;10.02;;;2.97;;
22916;SDS011;11624;53.250;7.456;2022-09-09T14:15:25;12.18;;;3.58;;
22916;SDS011;11624;53.250;7.456;2022-09-09T14:17:54;10.70;;;3.00;;
22916;SDS011;11624;53.250;7.456;2022-09-09T14:20:22;9.32;;;2.40;;
22916;SDS011;11624;53.250;7.456;2022-09-09T14:22:50;10.60;;;2.88;;
22916;SDS011;11624;53.250;7.456;2022-09-09T14:25:19;10.60;;;2.65;;
22916;SDS011;11624;53.250;7.456;2022-09-09T14:27:47;9.32;;;2.58;;
22916;SDS011;11624;53.250;7.456;2022-09-09T14:30:19;10.85;;;2.78;;
22916;SDS011;11624;53.250;7.456;2022-09-09T14:32:47;8.43;;;2.55;;
22916;SDS011;11624;53.250;7.456;2022-09-09T14:35:15;10.05;;;2.80;;
22916;SDS011;11624;53.250;7.456;2022-09-09T14:37:43;8.93;;;2.10;;
22916;SDS011;11624;53.250;7.456;2022-09-09T14:40:13;8.68;;;1.73;;
22916;SDS011;11624;53.250;7.456;2022-09-09T14:42:43;3.50;;;1.25;;
22916;SDS011;11624;53.250;7.456;2022-09-09T14:45:11;6.70;;;1.30;;
22916;SDS011;11624;53.250;7.456;2022-09-09T14:47:40;6.63;;;1.20;;
22916;SDS011;11624;53.250;7.456;2022-09-09T14:50:08;4.55;;;1.27;;
22916;SDS011;11624;53.250;7.456;2022-09-09T14:52:38;5.22;;;1.40;;
22916;SDS011;11624;53.250;7.456;2022-09-09T14:55:07;7.28;;;1.52;;
22916;SDS011;11624;53.250;7.456;2022-09-09T14:57:35;5.35;;;1.30;;
22916;SDS011;11624;53.250;7.456;2022-09-09T15:00:05;6.00;;;1.20;;
22916;SDS011;11624;53.250;7.456;2022-09-09T15:02:34;7.45;;;1.25;;
22916;SDS011;11624;53.250;7.456;2022-09-09T15:05:04;5.28;;;1.23;;
22916;SDS011;11624;53.250;7.456;2022-09-09T15:07:33;3.40;;;1.35;;
22916;SDS011;11624;53.250;7.456;2022-09-09T15:10:02;6.25;;;1.30;;
22916;SDS011;11624;53.250;7.456;2022-09-09T15:12:31;6.47;;;1.50;;
22916;SDS011;11624;53.250;7.456;2022-09-09T15:14:59;9.55;;;1.70;;
22916;SDS011;11624;53.250;7.456;2022-09-09T15:17:27;8.88;;;1.60;;
22916;SDS011;11624;53.250;7.456;2022-09-09T15:19:55;7.10;;;1.92;;
22916;SDS011;11624;53.250;7.456;2022-09-09T15:22:25;10.73;;;2.10;;
22916;SDS011;11624;53.250;7.456;2022-09-09T15:24:53;8.68;;;1.90;;
22916;SDS011;11624;53.250;7.456;2022-09-09T15:27:21;6.47;;;1.60;;